Time;durP1;ratioP1;P1;durP2;ratioP2;P2;SDS_P1;SDS_P2;PMS_P1;PMS_P2;Temp;Humidity;BMP_temperature;BMP_pressure;BME280_temperature;BME280_humidity;BME280_pressure;Samples;Min_cycle;Max_cycle;Signal;HPM_P1;HPM_P2
2022/03/05 00:00:53;;;;;;;42.78;27.65;;;102.60;2227.20;;;;;;5069955;28;20024;-58
2022/03/05 00:03:19;;;;;;;38.42;24.38;;;102.60;2227.20;;;;;;5069555;28;20101;-57
2022/03/05 00:05:45;;;;;;;47.20;32.67;;;102.70;2227.20;;;;;;5069931;28;20021;-58
2022/03/05 00:08:11;;;;;;;41.83;24.50;;;102.80;2227.20;;;;;;5072606;28;20036;-59
2022/03/05 00:10:37;;;;;;;56.05;36.38;;;102.80;2227.20;;;;;;5073569;28;20020;-56
2022/03/05 00:13:04;;;;;;;66.40;39.58;;;102.90;2227.20;;;;;;5073724;28;20024;-56
2022/03/05 00:15:30;;;;;;;49.92;30.77;;;103.00;2227.20;;;;;;5073402;28;20367;-56
2022/03/05 00:17:56;;;;;;;46.38;27.40;;;103.00;2227.20;;;;;;5073484;28;20036;-65
2022/03/05 00:20:23;;;;;;;42.17;23.88;;;103.00;2227.20;;;;;;5073561;28;20478;-55
2022/03/05 00:22:52;;;;;;;38.22;23.42;;;102.80;2227.20;;;;;;5073266;28;20540;-56
2022/03/05 00:25:24;;;;;;;40.72;26.33;;;102.80;2227.20;;;;;;5073235;28;20043;-55
2022/03/05 00:27:51;;;;;;;41.03;27.27;;;102.80;2227.20;;;;;;5073031;28;20051;-56
2022/03/05 00:30:18;;;;;;;45.85;27.20;;;102.80;2227.20;;;;;;5073203;28;20035;-56
2022/03/05 00:32:45;;;;;;;41.33;23.63;;;102.80;2227.20;;;;;;5073376;28;20103;-56
2022/03/05 00:35:12;;;;;;;43.38;27.52;;;102.70;2227.20;;;;;;5073480;28;20031;-56
2022/03/05 00:37:38;;;;;;;50.20;30.10;;;102.50;2227.20;;;;;;5073171;28;20013;-56
2022/03/05 00:40:05;;;;;;;46.00;27.08;;;102.40;2227.20;;;;;;5073143;28;20021;-56
2022/03/05 00:42:30;;;;;;;43.80;28.73;;;77.70;2227.20;;;;;;5072862;28;20035;-55
2022/03/05 00:44:56;;;;;;;47.10;27.58;;;77.60;2227.20;;;;;;5073073;28;20445;-56
2022/03/05 00:47:22;;;;;;;46.92;29.88;;;77.50;2227.20;;;;;;5072573;28;20360;-56
2022/03/05 00:49:48;;;;;;;58.72;32.15;;;77.40;2227.20;;;;;;5072896;28;20032;-57
2022/03/05 00:52:13;;;;;;;51.50;29.92;;;77.40;2227.20;;;;;;5073067;28;20395;-56
2022/03/05 00:54:39;;;;;;;56.72;31.85;;;77.30;2227.20;;;;;;5072693;28;20109;-56
2022/03/05 00:57:05;;;;;;;53.85;31.95;;;77.20;2227.20;;;;;;5072840;28;20601;-56
2022/03/05 00:59:30;;;;;;;52.20;31.85;;;77.10;2227.20;;;;;;5072754;28;20387;-57
2022/03/05 01:01:57;;;;;;;48.47;29.75;;;77.20;2227.20;;;;;;5072579;28;20031;-56
2022/03/05 01:04:22;;;;;;;39.92;25.00;;;77.30;2227.20;;;;;;5072908;28;20058;-55
2022/03/05 01:06:48;;;;;;;38.55;24.42;;;77.40;2227.20;;;;;;5072487;28;20095;-56
2022/03/05 01:09:14;;;;;;;37.67;23.30;;;77.60;2227.20;;;;;;5072734;28;20474;-56
2022/03/05 01:11:40;;;;;;;38.08;25.48;;;77.60;2227.20;;;;;;5072423;28;20497;-56
2022/03/05 01:14:07;;;;;;;45.70;30.15;;;77.50;2227.20;;;;;;5073070;28;20033;-58
2022/03/05 01:16:34;;;;;;;48.17;26.65;;;77.60;2227.20;;;;;;5072363;28;20097;-59
2022/03/05 01:19:00;;;;;;;41.70;25.42;;;77.60;2227.20;;;;;;5071367;28;20032;-56
2022/03/05 01:21:27;;;;;;;36.95;23.52;;;102.40;2227.20;;;;;;5072181;28;20499;-59
2022/03/05 01:23:53;;;;;;;41.63;25.50;;;102.40;2227.20;;;;;;5072472;28;20107;-55
2022/03/05 01:26:19;;;;;;;51.03;29.95;;;77.70;2227.20;;;;;;5071752;28;20032;-56
2022/03/05 01:28:44;;;;;;;37.50;24.58;;;77.70;2227.20;;;;;;5072376;28;20052;-58
2022/03/05 01:31:10;;;;;;;38.97;24.33;;;77.60;2227.20;;;;;;5072170;28;20103;-56
2022/03/05 01:33:36;;;;;;;42.30;24.67;;;77.60;2227.20;;;;;;5071955;28;20020;-56
2022/03/05 01:36:02;;;;;;;44.17;26.55;;;77.60;2227.20;;;;;;5072202;28;20074;-55
2022/03/05 01:38:28;;;;;;;42.35;26.13;;;77.60;2227.20;;;;;;5071886;28;20020;-56
2022/03/05 01:40:53;;;;;;;34.13;23.70;;;77.40;2227.20;;;;;;5072121;28;20017;-59
2022/03/05 01:43:19;;;;;;;34.78;21.95;;;77.50;2227.20;;;;;;5071731;28;20490;-56
2022/03/05 01:45:45;;;;;;;42.10;26.45;;;77.50;2227.20;;;;;;5071898;28;20059;-57
2022/03/05 01:48:11;;;;;;;43.38;28.08;;;77.40;2227.20;;;;;;5071568;28;20085;-59
2022/03/05 01:50:37;;;;;;;46.70;28.00;;;77.50;2227.20;;;;;;5070393;28;20036;-56
2022/03/05 01:53:02;;;;;;;48.08;27.95;;;77.60;2227.20;;;;;;5071804;28;20024;-56
2022/03/05 01:55:29;;;;;;;108.72;56.58;;;77.70;2227.20;;;;;;5071467;28;20070;-56
2022/03/05 01:57:55;;;;;;;94.20;47.38;;;77.60;2227.20;;;;;;5071778;28;20115;-55
2022/03/05 02:00:20;;;;;;;64.00;34.40;;;77.60;2227.20;;;;;;5071550;28;20458;-56
2022/03/05 02:02:47;;;;;;;65.63;36.75;;;77.70;2227.20;;;;;;5071657;28;20035;-57
2022/03/05 02:05:14;;;;;;;96.80;53.15;;;77.60;2227.20;;;;;;5071731;28;20126;-60
2022/03/05 02:07:40;;;;;;;63.22;35.30;;;77.40;2227.20;;;;;;5071521;28;20025;-56
2022/03/05 02:10:08;;;;;;;39.17;25.20;;;77.50;2227.20;;;;;;5071386;28;20037;-58
2022/03/05 02:12:36;;;;;;;47.00;27.92;;;77.50;2227.20;;;;;;5071458;28;20032;-54
2022/03/05 02:15:03;;;;;;;36.83;24.45;;;77.40;2227.20;;;;;;5071392;28;20028;-59
2022/03/05 02:17:29;;;;;;;36.65;22.75;;;77.40;2227.20;;;;;;5070919;28;20371;-56
2022/03/05 02:19:55;;;;;;;48.65;28.70;;;77.40;2227.20;;;;;;5071359;28;20421;-56
2022/03/05 02:22:21;;;;;;;48.95;26.55;;;77.60;2227.20;;;;;;5071188;28;20406;-58
2022/03/05 02:25:03;;;;;;;39.53;25.67;;;77.30;2227.20;;;;;;5070946;28;20024;-57
2022/03/05 02:27:29;;;;;;;39.50;25.08;;;77.30;2227.20;;;;;;5070721;28;20064;-56
2022/03/05 02:29:56;;;;;;;40.90;23.83;;;77.50;2227.20;;;;;;5071129;28;20090;-56
2022/03/05 02:32:23;;;;;;;36.67;24.15;;;77.60;2227.20;;;;;;5070971;28;20024;-56
2022/03/05 02:34:49;;;;;;;42.65;26.17;;;77.50;2227.20;;;;;;5070815;28;20025;-56
2022/03/05 02:37:16;;;;;;;43.60;25.55;;;77.60;2227.20;;;;;;5070977;28;20035;-57
2022/03/05 02:39:43;;;;;;;51.67;26.90;;;77.70;2227.20;;;;;;5071004;28;20052;-56
2022/03/05 02:42:09;;;;;;;39.85;24.70;;;77.70;2227.20;;;;;;5070695;28;20066;-58
2022/03/05 02:44:35;;;;;;;39.97;25.33;;;102.40;2227.20;;;;;;5071020;28;20038;-56
2022/03/05 02:47:01;;;;;;;42.40;26.67;;;102.40;2227.20;;;;;;5070586;28;20099;-58
2022/03/05 02:49:27;;;;;;;47.65;29.33;;;102.40;2227.20;;;;;;5070577;28;20075;-56
2022/03/05 02:51:53;;;;;;;44.85;27.83;;;77.70;2227.20;;;;;;5070687;28;20070;-56
2022/03/05 02:54:19;;;;;;;49.15;30.80;;;77.70;2227.20;;;;;;5070529;28;20024;-56
2022/03/05 02:56:45;;;;;;;47.75;27.63;;;77.70;2227.20;;;;;;5070413;28;20032;-56
2022/03/05 02:59:11;;;;;;;46.65;28.13;;;77.70;2227.20;;;;;;5070460;28;20470;-56
2022/03/05 03:01:36;;;;;;;44.00;28.77;;;77.70;2227.20;;;;;;5070476;28;20078;-56
2022/03/05 03:04:02;;;;;;;43.63;28.15;;;77.70;2227.20;;;;;;5070278;28;20070;-56
2022/03/05 03:06:29;;;;;;;56.33;35.08;;;77.70;2227.20;;;;;;5070311;28;20098;-56
2022/03/05 03:08:54;;;;;;;50.08;31.38;;;77.70;2227.20;;;;;;5070287;28;20033;-56
2022/03/05 03:11:20;;;;;;;51.28;30.45;;;77.70;2227.20;;;;;;5070207;28;20029;-56
2022/03/05 03:13:46;;;;;;;44.45;29.50;;;77.70;2227.20;;;;;;5070512;28;20021;-56
2022/03/05 03:16:12;;;;;;;44.65;28.60;;;77.70;2227.20;;;;;;5070258;28;20039;-58
2022/03/05 03:18:37;;;;;;;45.28;28.58;;;77.70;2227.20;;;;;;5069972;28;20031;-57
2022/03/05 03:21:03;;;;;;;42.10;27.65;;;77.70;2227.20;;;;;;5070277;28;20150;-56
2022/03/05 03:23:29;;;;;;;44.45;27.92;;;102.40;2227.20;;;;;;5070080;28;20031;-56
2022/03/05 03:25:55;;;;;;;45.95;27.25;;;102.40;2227.20;;;;;;5069981;28;20024;-56
2022/03/05 03:28:20;;;;;;;39.80;25.88;;;102.40;2227.20;;;;;;5069746;28;20118;-59
2022/03/05 03:30:46;;;;;;;47.33;27.83;;;102.40;2227.20;;;;;;5070154;28;20028;-56
2022/03/05 03:33:12;;;;;;;41.25;26.73;;;102.40;2227.20;;;;;;5070253;28;20063;-58
2022/03/05 03:35:38;;;;;;;44.50;28.15;;;77.70;2227.20;;;;;;5069938;28;20036;-56
2022/03/05 03:38:04;;;;;;;46.33;29.00;;;102.40;2227.20;;;;;;5070105;28;20021;-56
2022/03/05 03:40:30;;;;;;;75.72;40.95;;;102.40;2227.20;;;;;;5069910;28;20034;-55
2022/03/05 03:42:55;;;;;;;87.03;47.03;;;77.70;2227.20;;;;;;5069421;28;20054;-56
2022/03/05 03:45:21;;;;;;;74.32;44.60;;;102.40;2227.20;;;;;;5070182;28;20033;-56
2022/03/05 03:47:49;;;;;;;73.70;42.67;;;102.40;2227.20;;;;;;5069743;28;20443;-58
2022/03/05 03:50:18;;;;;;;67.07;40.15;;;102.40;2227.20;;;;;;5070083;28;20368;-56
2022/03/05 03:52:44;;;;;;;74.75;41.28;;;102.40;2227.20;;;;;;5070166;28;20040;-58
2022/03/05 03:55:13;;;;;;;91.47;46.65;;;77.50;2227.20;;;;;;5069817;28;20031;-59
2022/03/05 03:57:39;;;;;;;78.35;44.35;;;77.40;2227.20;;;;;;5069551;28;20032;-56
2022/03/05 04:00:11;;;;;;;62.55;35.05;;;77.40;2227.20;;;;;;5069876;28;20037;-59
2022/03/05 04:02:37;;;;;;;55.35;33.38;;;77.40;2227.20;;;;;;5069609;28;20032;-57
2022/03/05 04:05:03;;;;;;;61.30;37.22;;;77.30;2227.20;;;;;;5069808;28;20032;-59
2022/03/05 04:10:13;;;;;;;57.30;31.13;;;77.30;2227.20;;;;;;5069949;28;20121;-59
2022/03/05 04:12:38;;;;;;;70.55;42.15;;;77.30;2227.20;;;;;;5069666;28;20530;-56
2022/03/05 04:15:05;;;;;;;62.42;36.38;;;77.20;2227.20;;;;;;5069465;28;20116;-56
2022/03/05 04:17:30;;;;;;;52.65;32.65;;;77.00;2227.20;;;;;;5069482;28;20078;-56
2022/03/05 04:19:56;;;;;;;54.33;35.35;;;77.00;2227.20;;;;;;5069694;28;20032;-55
2022/03/05 04:22:22;;;;;;;55.35;36.33;;;77.00;2227.20;;;;;;5069874;28;20021;-56
2022/03/05 04:24:48;;;;;;;66.43;36.42;;;76.90;2227.20;;;;;;5069533;28;20036;-57
2022/03/05 04:27:13;;;;;;;53.80;32.75;;;76.80;2227.20;;;;;;5069538;28;20129;-56
2022/03/05 04:29:39;;;;;;;73.68;43.45;;;52.00;2227.20;;;;;;5069313;28;20051;-56
2022/03/05 04:32:06;;;;;;;63.63;37.88;;;52.10;2227.20;;;;;;5069528;28;20090;-56
2022/03/05 04:34:32;;;;;;;60.97;38.70;;;52.00;2227.20;;;;;;5069427;28;20415;-56
2022/03/05 04:36:57;;;;;;;51.70;33.25;;;51.90;2227.20;;;;;;5069320;28;20086;-57
2022/03/05 04:39:23;;;;;;;57.50;35.60;;;51.80;2227.20;;;;;;5069412;28;20063;-56
2022/03/05 04:41:49;;;;;;;54.78;35.70;;;51.90;2227.20;;;;;;5069352;28;20459;-56
2022/03/05 04:44:15;;;;;;;50.95;33.78;;;51.90;2227.20;;;;;;5069648;28;20025;-61
2022/03/05 04:46:41;;;;;;;59.38;36.13;;;51.90;2227.20;;;;;;5069256;28;20082;-56
2022/03/05 04:49:06;;;;;;;72.60;41.42;;;52.00;2227.20;;;;;;5067735;28;20453;-59
2022/03/05 04:51:32;;;;;;;66.85;41.42;;;51.90;2227.20;;;;;;5069362;28;20078;-56
2022/03/05 04:53:58;;;;;;;74.47;48.00;;;51.90;2227.20;;;;;;5070035;28;20025;-56
2022/03/05 04:56:24;;;;;;;75.43;48.05;;;51.90;2227.20;;;;;;5072738;28;20159;-56
2022/03/05 04:58:50;;;;;;;81.97;51.30;;;51.80;2227.20;;;;;;5072529;28;20028;-56
2022/03/05 05:01:15;;;;;;;97.57;57.58;;;51.80;2227.20;;;;;;5072945;28;20036;-56
2022/03/05 05:03:41;;;;;;;97.38;63.22;;;51.80;2227.20;;;;;;5072922;28;20103;-56
2022/03/05 05:06:07;;;;;;;77.88;47.35;;;51.90;2227.20;;;;;;5072341;28;20074;-58
2022/03/05 05:08:33;;;;;;;73.65;45.08;;;51.80;2227.20;;;;;;5072431;28;20037;-59
2022/03/05 05:10:59;;;;;;;78.13;41.45;;;51.80;2227.20;;;;;;5072390;28;20032;-57
2022/03/05 05:13:24;;;;;;;65.45;40.58;;;51.80;2227.20;;;;;;5072766;28;20032;-57
2022/03/05 05:15:50;;;;;;;75.32;48.47;;;51.70;2227.20;;;;;;5072498;28;20056;-56
2022/03/05 05:18:16;;;;;;;63.83;38.13;;;51.70;2227.20;;;;;;5072449;28;20100;-57
2022/03/05 05:20:41;;;;;;;73.95;44.03;;;51.70;2227.20;;;;;;5072376;28;20060;-59
2022/03/05 05:23:07;;;;;;;81.60;50.25;;;51.80;2227.20;;;;;;5072294;28;20105;-57
2022/03/05 05:25:33;;;;;;;79.25;47.47;;;51.70;2227.20;;;;;;5072232;28;20032;-57
2022/03/05 05:27:59;;;;;;;79.43;50.05;;;51.70;2227.20;;;;;;5071999;28;20044;-56
2022/03/05 05:30:25;;;;;;;82.28;51.42;;;51.80;2227.20;;;;;;5072234;28;20036;-56
2022/03/05 05:32:50;;;;;;;99.60;58.92;;;51.90;2227.20;;;;;;5072189;28;20029;-58
2022/03/05 05:35:16;;;;;;;108.75;76.30;;;52.00;2227.20;;;;;;5072185;28;20429;-59
2022/03/05 05:37:42;;;;;;;83.80;55.08;;;52.10;2227.20;;;;;;5072307;28;20024;-57
2022/03/05 05:40:08;;;;;;;129.05;100.15;;;76.80;2227.20;;;;;;5071992;28;20030;-57
2022/03/05 05:42:34;;;;;;;81.57;55.97;;;77.00;2227.20;;;;;;5072079;28;20072;-56
2022/03/05 05:45:00;;;;;;;87.78;59.72;;;77.10;2227.20;;;;;;5071844;28;20059;-56
2022/03/05 05:47:26;;;;;;;81.47;52.83;;;77.20;2227.20;;;;;;5072133;28;20032;-57
2022/03/05 05:49:52;;;;;;;62.75;39.30;;;77.40;2227.20;;;;;;5071688;28;20044;-58
2022/03/05 05:52:18;;;;;;;58.78;37.00;;;77.50;2227.20;;;;;;5072078;28;20455;-58
2022/03/05 05:54:45;;;;;;;71.00;41.45;;;77.60;2227.20;;;;;;5071974;28;20041;-56
2022/03/05 05:57:11;;;;;;;61.50;35.78;;;77.60;2227.20;;;;;;5071599;28;20051;-59
2022/03/05 05:59:37;;;;;;;70.30;39.22;;;77.30;2227.20;;;;;;5071685;28;20471;-56
2022/03/05 06:02:03;;;;;;;62.92;39.28;;;77.20;2227.20;;;;;;5070577;28;20040;-56
2022/03/05 06:04:29;;;;;;;64.25;38.03;;;77.20;2227.20;;;;;;5070904;28;20044;-56
2022/03/05 06:06:57;;;;;;;58.75;34.35;;;77.20;2227.20;;;;;;5071563;28;20029;-57
2022/03/05 06:09:23;;;;;;;56.97;33.22;;;77.20;2227.20;;;;;;5103655;28;20053;-58
2022/03/05 06:11:49;;;;;;;54.45;34.80;;;77.30;2227.20;;;;;;5071260;28;20524;-58
2022/03/05 06:14:15;;;;;;;55.40;34.70;;;77.40;2227.20;;;;;;5071880;28;20033;-54
2022/03/05 06:16:42;;;;;;;61.95;36.28;;;77.40;2227.20;;;;;;5071498;28;20052;-58
2022/03/05 06:19:08;;;;;;;58.38;36.00;;;77.50;2227.20;;;;;;5071040;28;20037;-56
2022/03/05 06:21:34;;;;;;;57.03;33.33;;;77.50;2227.20;;;;;;5071417;28;20429;-56
2022/03/05 06:24:00;;;;;;;58.80;37.95;;;77.60;2227.20;;;;;;5071105;28;20036;-56
2022/03/05 06:26:28;;;;;;;63.33;37.00;;;77.60;2227.20;;;;;;5070950;28;20078;-57
2022/03/05 06:28:54;;;;;;;111.28;63.97;;;77.60;2227.20;;;;;;5071308;28;20040;-58
2022/03/05 06:31:20;;;;;;;71.47;42.17;;;103.10;2227.20;;;;;;5071228;28;20028;-56
2022/03/05 06:33:46;;;;;;;55.88;36.10;;;128.30;2252.80;;;;;;5070880;28;20463;-59
2022/03/05 06:36:11;;;;;;;54.40;34.65;;;153.90;2252.80;;;;;;5070603;28;20039;-59
2022/03/05 06:38:37;;;;;;;54.97;36.05;;;180.00;2252.80;;;;;;5070782;28;20021;-59
2022/03/05 06:41:03;;;;;;;50.92;37.13;;;205.30;2252.80;;;;;;5070949;28;20035;-55
2022/03/05 06:43:29;;;;;;;46.22;30.92;;;230.50;2252.80;;;;;;5070272;28;20379;-59
2022/03/05 06:45:54;;;;;;;48.05;33.35;;;230.60;2252.80;;;;;;5070152;28;20021;-57
2022/03/05 06:48:20;;;;;;;67.38;40.92;;;230.60;2150.40;;;;;;5069746;28;20025;-57
2022/03/05 06:50:46;;;;;;;49.97;35.58;;;231.20;2124.80;;;;;;5069914;28;20583;-55
2022/03/05 06:53:12;;;;;;;50.38;35.97;;;256.20;1996.80;;;;;;5070057;28;20451;-55
2022/03/05 06:55:37;;;;;;;48.92;34.25;;;256.10;1996.80;;;;;;5069339;28;20032;-58
2022/03/05 06:58:03;;;;;;;54.00;35.72;;;231.20;1996.80;;;;;;5070508;28;20058;-56
2022/03/05 07:00:30;;;;;;;57.45;37.53;;;231.00;2022.40;;;;;;5069315;28;20463;-56
2022/03/05 07:02:55;;;;;;;49.45;36.38;;;231.20;1996.80;;;;;;5070202;28;20474;-56
2022/03/05 07:05:21;;;;;;;54.65;37.60;;;256.80;1894.40;;;;;;5069573;28;20062;-59
2022/03/05 07:07:47;;;;;;;55.25;40.72;;;;;;;;;;5069983;28;20036;-59
2022/03/05 07:10:13;;;;;;;54.92;42.08;;;;;;;;;;5070296;28;20576;-58
2022/03/05 07:12:39;;;;;;;58.40;41.78;;;358.50;1638.40;;;;;;5070033;28;20070;-60
2022/03/05 07:15:07;;;;;;;67.15;51.30;;;358.50;1612.80;;;;;;5069340;28;20090;-59
2022/03/05 07:17:33;;;;;;;80.47;64.28;;;358.80;1612.80;;;;;;5069350;28;20025;-57
2022/03/05 07:19:59;;;;;;;99.95;76.25;;;;;;;;;;5069734;28;20078;-56
2022/03/05 07:22:25;;;;;;;91.35;67.10;;;;;;;;;;5069904;28;20032;-59
2022/03/05 07:24:51;;;;;;;117.57;88.38;;;308.00;1689.60;;;;;;5069380;28;20475;-56
2022/03/05 07:27:17;;;;;;;69.50;51.63;;;307.60;1715.20;;;;;;5069552;28;20044;-56
2022/03/05 07:29:43;;;;;;;74.38;57.15;;;308.00;1689.60;;;;;;5069700;28;20047;-57
2022/03/05 07:32:10;;;;;;;64.75;47.42;;;333.70;1638.40;;;;;;5069723;28;20021;-56
2022/03/05 07:34:36;;;;;;;57.28;43.70;;;359.30;1536.00;;;;;;5069867;28;20489;-56
2022/03/05 07:37:03;;;;;;;61.13;48.25;;;384.60;1484.80;;;;;;5069789;28;20020;-56
2022/03/05 07:39:28;;;;;;;79.47;57.83;;;384.90;1459.20;;;;;;5069651;28;20101;-56
2022/03/05 07:41:54;;;;;;;92.00;73.03;;;410.40;1433.60;;;;;;5070005;28;20455;-58
2022/03/05 07:44:20;;;;;;;76.45;64.50;;;410.50;1408.00;;;;;;5069628;28;20040;-58
2022/03/05 07:46:46;;;;;;;95.50;74.47;;;460.80;1356.80;;;;;;5069694;28;20036;-56
2022/03/05 07:49:12;;;;;;;90.75;76.32;;;436.00;1331.20;;;;;;5069350;28;20029;-56
2022/03/05 07:52:13;;;;;;;84.72;68.97;;;460.80;1356.80;;;;;;5083300;28;20052;-58
2022/03/05 07:55:25;;;;;;;79.10;63.47;;;461.60;1305.60;;;;;;5064167;28;20093;-57
2022/03/05 08:01:27;;;;;;;89.82;74.97;;;461.70;1280.00;;;;;;5043723;28;20025;-59
2022/03/05 08:03:54;;;;;;;90.82;74.00;;;487.00;1228.80;;;;;;5031354;28;20457;-58
2022/03/05 08:06:20;;;;;;;82.90;67.38;;;487.00;1203.20;;;;;;5032266;28;20033;-56
2022/03/05 08:08:46;;;;;;;85.32;68.93;;;486.80;1203.20;;;;;;5030430;28;20041;-56
2022/03/05 08:11:12;;;;;;;143.13;125.32;;;487.20;1177.60;;;;;;5030643;28;20025;-57
2022/03/05 08:13:38;;;;;;;91.32;73.85;;;512.50;1152.00;;;;;;5030085;28;20419;-57
2022/03/05 08:16:04;;;;;;;120.65;99.82;;;512.80;1126.40;;;;;;5030892;28;20049;-58
2022/03/05 08:18:30;;;;;;;91.65;80.00;;;537.70;1152.00;;;;;;5030665;28;20068;-56
2022/03/05 08:20:55;;;;;;;143.45;124.18;;;512.20;1152.00;;;;;;5030331;28;20025;-56
2022/03/05 08:23:21;;;;;;;102.30;83.85;;;537.60;1152.00;;;;;;5031178;28;20048;-60
2022/03/05 08:25:47;;;;;;;99.70;77.47;;;487.30;1152.00;;;;;;5030382;28;20037;-57
2022/03/05 08:28:13;;;;;;;189.48;168.23;;;486.70;1177.60;;;;;;5031492;28;20060;-60
2022/03/05 08:30:40;;;;;;;99.30;85.75;;;461.60;1228.80;;;;;;5034228;28;20025;-56
2022/03/05 08:33:06;;;;;;;139.85;115.93;;;486.80;1203.20;;;;;;5034197;28;20109;-56
2022/03/05 08:39:07;;;;;;;116.07;100.70;;;461.50;1254.40;;;;;;5075976;28;20097;-57
2022/03/05 08:41:33;;;;;;;183.80;150.23;;;461.70;1228.80;;;;;;5076295;28;20486;-56
2022/03/05 08:43:59;;;;;;;119.97;97.32;;;486.40;1228.80;;;;;;5076420;28;20032;-56
2022/03/05 08:46:24;;;;;;;115.43;95.60;;;435.60;1280.00;;;;;;5076217;28;20032;-56
2022/03/05 08:48:50;;;;;;;121.47;100.75;;;435.30;1280.00;;;;;;5076147;28;20487;-57
2022/03/05 08:51:16;;;;;;;109.63;93.70;;;461.00;1280.00;;;;;;5075796;28;20032;-56
2022/03/05 08:53:42;;;;;;;124.45;103.15;;;435.80;1280.00;;;;;;5072855;28;20036;-55
2022/03/05 08:56:08;;;;;;;117.00;95.45;;;410.00;1356.80;;;;;;5072595;28;20037;-56
2022/03/05 08:58:33;;;;;;;95.25;78.60;;;384.60;1382.40;;;;;;5072816;28;20093;-57
2022/03/05 09:01:01;;;;;;;100.65;79.35;;;358.60;1459.20;;;;;;5072778;28;20028;-55
2022/03/05 09:03:27;;;;;;;102.15;78.75;;;333.20;1510.40;;;;;;5072669;28;20457;-58
2022/03/05 09:05:53;;;;;;;162.95;103.32;;;308.00;1536.00;;;;;;5072895;28;20048;-59
2022/03/05 09:08:19;;;;;;;108.50;78.28;;;307.60;1587.20;;;;;;5072443;28;20024;-56
2022/03/05 09:10:46;;;;;;;273.45;154.82;;;282.50;1587.20;;;;;;5072607;28;20074;-57
2022/03/05 09:13:11;;;;;;;103.28;70.63;;;281.90;1612.80;;;;;;5072502;28;20012;-56
2022/03/05 09:15:38;;;;;;;154.32;92.07;;;281.60;1638.40;;;;;;5072600;28;20082;-56
2022/03/05 09:18:04;;;;;;;83.82;58.78;;;281.80;1612.80;;;;;;5072551;28;20067;-56
2022/03/05 09:20:31;;;;;;;73.07;49.90;;;281.90;1612.80;;;;;;5072514;28;20028;-56
2022/03/05 09:22:58;;;;;;;77.65;53.50;;;281.90;1612.80;;;;;;5072502;28;20028;-57
2022/03/05 09:25:24;;;;;;;66.65;48.17;;;256.80;1612.80;;;;;;5072429;28;20043;-57
2022/03/05 09:27:50;;;;;;;486.38;323.23;;;256.90;1612.80;;;;;;5072016;28;20053;-55
2022/03/05 09:30:16;;;;;;;77.13;49.67;;;282.00;1612.80;;;;;;5072432;28;20058;-57
2022/03/05 09:32:43;;;;;;;68.85;49.55;;;282.40;1561.60;;;;;;5072610;28;20035;-59
2022/03/05 09:35:09;;;;;;;152.50;89.43;;;282.20;1561.60;;;;;;5072197;28;20095;-56
2022/03/05 09:37:35;;;;;;;73.20;46.25;;;282.00;1587.20;;;;;;5072028;28;20433;-58
2022/03/05 09:40:01;;;;;;;67.05;45.38;;;281.80;1536.00;;;;;;5071178;28;20020;-54
2022/03/05 09:42:27;;;;;;;67.32;42.33;;;282.20;1536.00;;;;;;5071773;28;20058;-56
2022/03/05 09:44:53;;;;;;;60.67;40.72;;;282.10;1510.40;;;;;;5071989;28;20099;-58
2022/03/05 09:47:21;;;;;;;74.78;51.72;;;282.50;1484.80;;;;;;5071789;28;20100;-58
2022/03/05 09:49:46;;;;;;;158.90;118.47;;;282.20;1484.80;;;;;;5071686;28;20032;-56
2022/03/05 09:52:12;;;;;;;67.15;49.25;;;282.00;1536.00;;;;;;5071856;28;20029;-57
2022/03/05 09:54:38;;;;;;;57.75;42.75;;;281.90;1510.40;;;;;;5071722;28;20103;-56
2022/03/05 09:57:11;;;;;;;148.27;132.75;;;282.10;1510.40;;;;;;5071704;28;20443;-56
2022/03/05 09:59:37;;;;;;;66.55;43.50;;;281.80;1510.40;;;;;;5071840;28;20025;-56
2022/03/05 10:02:05;;;;;;;78.57;48.63;;;281.70;1510.40;;;;;;5071769;28;20056;-60
2022/03/05 10:04:31;;;;;;;46.30;31.58;;;281.70;1536.00;;;;;;5071744;28;20107;-56
2022/03/05 10:07:07;;;;;;;58.50;38.35;;;256.00;1510.40;;;;;;5071425;28;20123;-56
2022/03/05 10:09:34;;;;;;;82.25;47.45;;;256.90;1510.40;;;;;;5071761;28;20033;-55
2022/03/05 10:11:59;;;;;;;60.25;36.92;;;281.70;1510.40;;;;;;5071555;28;20052;-55
2022/03/05 10:14:25;;;;;;;57.60;35.42;;;256.20;1510.40;;;;;;5071751;28;20024;-55
2022/03/05 10:17:00;;;;;;;49.08;33.38;;;231.10;1536.00;;;;;;5071453;28;20024;-55
2022/03/05 10:19:27;;;;;;;48.03;29.55;;;256.60;1536.00;;;;;;5071516;28;20378;-54
2022/03/05 10:21:58;;;;;;;60.50;41.35;;;256.50;1484.80;;;;;;5071306;28;20031;-55
2022/03/05 10:24:31;;;;;;;48.10;31.70;;;256.10;1536.00;;;;;;5071500;28;20035;-54
2022/03/05 10:26:58;;;;;;;506.00;330.23;;;256.00;1561.60;;;;;;5070592;28;20083;-56
2022/03/05 10:29:34;;;;;;;127.05;79.60;;;256.10;1587.20;;;;;;5071102;28;20036;-58
2022/03/05 10:32:05;;;;;;;340.15;242.88;;;256.60;1561.60;;;;;;5071087;28;20033;-56
2022/03/05 10:34:42;;;;;;;50.13;33.90;;;256.70;1536.00;;;;;;5070755;28;20055;-55
2022/03/05 10:37:08;;;;;;;49.47;32.67;;;256.60;1536.00;;;;;;5070660;28;20063;-56
2022/03/05 10:39:34;;;;;;;65.43;41.10;;;256.50;1561.60;;;;;;5070846;28;20089;-56
2022/03/05 10:42:01;;;;;;;67.97;44.15;;;256.20;1612.80;;;;;;5070870;28;20025;-56
2022/03/05 10:44:27;;;;;;;69.07;39.88;;;231.10;1638.40;;;;;;5070805;28;20029;-58
2022/03/05 10:47:02;;;;;;;57.90;38.85;;;231.30;1638.40;;;;;;5070966;28;20036;-55
2022/03/05 10:49:36;;;;;;;63.72;39.53;;;231.10;1612.80;;;;;;5070665;28;20044;-56
2022/03/05 10:52:07;;;;;;;59.30;38.15;;;231.20;1638.40;;;;;;5070582;28;20029;-55
2022/03/05 10:54:39;;;;;;;55.55;37.28;;;256.20;1612.80;;;;;;5070884;28;20035;-55
2022/03/05 10:57:18;;;;;;;77.93;47.17;;;231.10;1638.40;;;;;;5070629;28;20040;-56
2022/03/05 10:59:45;;;;;;;58.60;36.92;;;256.10;1587.20;;;;;;5070766;28;20033;-59
2022/03/05 11:02:13;;;;;;;58.10;34.83;;;230.90;1638.40;;;;;;5070671;28;20021;-59
2022/03/05 11:04:40;;;;;;;201.98;124.57;;;230.80;1612.80;;;;;;5070751;28;20362;-60
2022/03/05 11:07:07;;;;;;;462.55;293.52;;;231.30;1612.80;;;;;;5070309;28;20033;-58
2022/03/05 11:09:36;;;;;;;56.78;36.65;;;231.20;1612.80;;;;;;5069681;28;20032;-58
2022/03/05 11:12:02;;;;;;;66.63;40.15;;;231.10;1587.20;;;;;;5070580;28;20036;-59
2022/03/05 11:14:28;;;;;;;64.60;43.35;;;231.30;1561.60;;;;;;5070510;28;20035;-55
2022/03/05 11:16:56;;;;;;;77.05;50.50;;;231.10;1612.80;;;;;;5070617;28;20470;-55
2022/03/05 11:19:23;;;;;;;67.18;43.25;;;256.00;1561.60;;;;;;5070476;28;20031;-55
2022/03/05 11:21:48;;;;;;;62.50;38.55;;;256.00;1587.20;;;;;;5070481;28;20107;-55
2022/03/05 11:24:18;;;;;;;57.42;36.55;;;231.10;1587.20;;;;;;5070452;28;20051;-54
2022/03/05 11:26:50;;;;;;;50.85;33.42;;;230.90;1587.20;;;;;;5070296;28;20063;-56
2022/03/05 11:29:19;;;;;;;60.25;36.53;;;231.00;1587.20;;;;;;5071109;28;20033;-62
2022/03/05 11:31:47;;;;;;;53.83;33.22;;;256.00;1561.60;;;;;;5070923;28;20061;-56
2022/03/05 11:34:23;;;;;;;47.90;29.50;;;230.80;1561.60;;;;;;5070276;28;20058;-66
2022/03/05 11:36:51;;;;;;;45.40;31.58;;;231.00;1536.00;;;;;;5069489;28;20483;-59
2022/03/05 11:39:31;;;;;;;50.28;32.03;;;231.00;1561.60;;;;;;5069903;28;20029;-59
2022/03/05 11:42:09;;;;;;;51.63;33.78;;;231.10;1536.00;;;;;;5067925;28;20040;-56
2022/03/05 11:44:43;;;;;;;54.85;35.30;;;230.90;1536.00;;;;;;5067203;28;20355;-58
2022/03/05 11:47:18;;;;;;;51.10;38.10;;;230.70;1536.00;;;;;;5068793;28;20544;-56
2022/03/05 11:49:59;;;;;;;44.85;26.98;;;230.90;1536.00;;;;;;5068546;28;20101;-55
2022/03/05 11:52:39;;;;;;;45.88;30.45;;;256.00;1536.00;;;;;;5067006;28;20020;-55
2022/03/05 11:55:11;;;;;;;54.90;33.58;;;231.20;1587.20;;;;;;5066782;28;20033;-55
2022/03/05 11:57:42;;;;;;;57.25;36.78;;;256.00;1536.00;;;;;;5068521;28;20386;-55
2022/03/05 12:00:09;;;;;;;46.72;30.00;;;231.20;1536.00;;;;;;5068707;28;20028;-56
2022/03/05 12:02:45;;;;;;;79.28;46.78;;;231.20;1536.00;;;;;;5069242;28;20025;-54
2022/03/05 12:05:32;;;;;;;40.58;25.58;;;256.00;1536.00;;;;;;5072976;28;20024;-54
2022/03/05 12:07:59;;;;;;;39.60;25.63;;;230.90;1510.40;;;;;;5072743;28;20033;-54
2022/03/05 12:10:25;;;;;;;53.00;38.15;;;230.70;1561.60;;;;;;5072910;28;20036;-59
2022/03/05 12:12:52;;;;;;;36.92;25.58;;;231.00;1536.00;;;;;;5073143;28;20370;-58